Terminal Aerodrome Forecast
Issued by NWS

Home | Current Version | Previous Version | Text Only | Print | Product List | Glossary On
Versions: 1 2 3 4 5 6 7 8 9 10 11 12 13 14 15 16 17 18 19 20
000
FTUS43 KMQT 302320
TAFCMX
TAF
KCMX 302320Z 3100/3124 23005KT P6SM SCT020 BKN060
     FM310300 21003KT 3SM -SN OVC020
     FM310500 22005KT 1 1/2SM -SN OVC015
     FM311100 28007KT 3SM -SN OVC015
     FM311400 32014G23KT 2SM -SHSN OVC015
     FM311800 36012G21KT 3SM -SHSN OVC015=

USA.gov is the U.S. government's official web portal to all federal, state and local government web resources and services.